Time;durP1;ratioP1;P1;durP2;ratioP2;P2;SDS_P1;SDS_P2;PMS_P1;PMS_P2;Temp;Humidity;BMP_temperature;BMP_pressure;BME280_temperature;BME280_humidity;BME280_pressure;Samples;Min_cycle;Max_cycle;Signal;HPM_P1;HPM_P2
2022/11/24 00:01:27;;;;;;;108.90;40.58;;;2.20;71.80;;;;;;6022144;23;114621;-83
2022/11/24 00:04:02;;;;;;;115.88;41.17;;;2.30;71.80;;;;;;6022373;23;114270;-83
2022/11/24 00:06:30;;;;;;;102.93;37.72;;;2.20;71.70;;;;;;6024440;23;114518;-82
2022/11/24 00:08:57;;;;;;;94.35;37.40;;;2.30;71.70;;;;;;5999251;23;117144;-83
2022/11/24 00:11:26;;;;;;;104.88;37.45;;;2.20;71.90;;;;;;6023281;23;114751;-80
2022/11/24 00:13:53;;;;;;;111.55;38.08;;;2.20;71.80;;;;;;6023342;23;114678;-80
2022/11/24 00:16:23;;;;;;;110.25;37.42;;;2.20;71.80;;;;;;6000557;23;114649;-82
2022/11/24 00:18:52;;;;;;;108.25;38.58;;;2.20;71.80;;;;;;6024474;23;115350;-82
2022/11/24 00:21:19;;;;;;;113.00;38.33;;;2.20;71.90;;;;;;6024423;23;114627;-83
2022/11/24 00:23:49;;;;;;;110.72;37.13;;;2.20;71.90;;;;;;6048062;23;114155;-82
2022/11/24 00:26:19;;;;;;;96.30;36.42;;;2.20;71.90;;;;;;6026569;23;114410;-82
2022/11/24 00:28:47;;;;;;;97.97;37.10;;;2.30;71.80;;;;;;6022905;23;115023;-82
2022/11/24 00:31:39;;;;;;;100.72;36.42;;;2.20;71.80;;;;;;6024095;23;114845;-82
2022/11/24 00:34:09;;;;;;;99.32;38.50;;;2.30;71.90;;;;;;6026094;23;114452;-82
2022/11/24 00:36:37;;;;;;;100.13;36.33;;;2.20;71.90;;;;;;6025278;23;114405;-82
2022/11/24 00:39:06;;;;;;;101.03;37.42;;;2.30;71.80;;;;;;6023309;23;114984;-82
2022/11/24 00:41:33;;;;;;;96.97;37.00;;;2.20;71.70;;;;;;6024416;23;114615;-82
2022/11/24 00:44:00;;;;;;;113.55;39.88;;;2.20;71.60;;;;;;6024368;23;114401;-82
2022/11/24 00:46:27;;;;;;;99.85;36.58;;;2.20;71.70;;;;;;6000619;23;114715;-82
2022/11/24 00:48:56;;;;;;;94.95;35.45;;;2.20;71.70;;;;;;6023925;23;115038;-82
2022/11/24 00:51:25;;;;;;;89.32;36.75;;;2.20;71.70;;;;;;5996363;23;114363;-82
2022/11/24 00:53:54;;;;;;;96.05;37.40;;;2.20;71.80;;;;;;6064641;23;114050;-82
2022/11/24 00:56:21;;;;;;;94.93;36.80;;;2.30;71.80;;;;;;6057684;23;114475;-82
2022/11/24 00:58:49;;;;;;;90.82;38.35;;;2.30;71.70;;;;;;6054661;23;114826;-82
2022/11/24 01:01:18;;;;;;;94.43;37.75;;;2.30;71.60;;;;;;6054536;23;114680;-82
2022/11/24 01:03:46;;;;;;;85.80;34.72;;;2.30;71.50;;;;;;6053400;23;114214;-82
2022/11/24 01:06:15;;;;;;;80.95;33.95;;;2.30;71.50;;;;;;6055233;23;114185;-82
2022/11/24 01:08:42;;;;;;;87.13;34.97;;;2.30;71.50;;;;;;6053922;23;114866;-82
2022/11/24 01:11:21;;;;;;;84.53;34.75;;;2.30;71.40;;;;;;6054129;23;115068;-82
2022/11/24 01:13:54;;;;;;;77.72;32.75;;;2.40;71.30;;;;;;6057002;23;114344;-82
2022/11/24 01:16:23;;;;;;;74.13;31.98;;;2.40;71.30;;;;;;6058473;23;114103;-82
2022/11/24 01:18:51;;;;;;;73.57;32.30;;;2.30;71.30;;;;;;6071753;23;114898;-82
2022/11/24 01:21:19;;;;;;;74.22;32.25;;;2.30;71.20;;;;;;6061667;23;114117;-82
2022/11/24 01:23:46;;;;;;;75.40;32.00;;;2.30;71.10;;;;;;6054247;23;114121;-82
2022/11/24 01:26:14;;;;;;;70.75;31.25;;;2.30;71.10;;;;;;6053739;23;114455;-82
2022/11/24 01:28:42;;;;;;;75.80;31.73;;;2.30;71.10;;;;;;6076460;23;115052;-82
2022/11/24 01:31:13;;;;;;;71.90;32.05;;;2.30;71.10;;;;;;6054924;23;114572;-82
2022/11/24 01:33:40;;;;;;;64.95;30.42;;;2.30;71.10;;;;;;6054915;23;114125;-82
2022/11/24 01:36:07;;;;;;;67.50;30.30;;;2.30;71.20;;;;;;6053333;23;114193;-82
2022/11/24 01:38:34;;;;;;;72.22;33.72;;;2.30;71.20;;;;;;6054933;23;115082;-82
2022/11/24 01:41:01;;;;;;;70.93;32.67;;;2.30;71.10;;;;;;6055566;23;114200;-82
2022/11/24 01:43:29;;;;;;;67.72;33.47;;;2.40;71.10;;;;;;6077562;23;114828;-82
2022/11/24 01:45:56;;;;;;;60.90;29.80;;;2.40;71.00;;;;;;6056434;23;114387;-82
2022/11/24 01:48:26;;;;;;;62.40;30.08;;;2.40;71.00;;;;;;6052766;23;115659;-82
2022/11/24 01:51:17;;;;;;;62.92;30.10;;;2.40;70.90;;;;;;6051448;23;114617;-82
2022/11/24 01:53:47;;;;;;;65.22;29.08;;;2.40;70.80;;;;;;6055120;23;114280;-82
2022/11/24 01:56:16;;;;;;;61.00;27.15;;;2.50;70.70;;;;;;6054195;23;114477;-82
2022/11/24 01:58:43;;;;;;;62.28;29.83;;;2.40;70.60;;;;;;6052473;23;114927;-81
2022/11/24 02:01:10;;;;;;;61.58;30.35;;;2.40;70.60;;;;;;6052172;23;114671;-82
2022/11/24 02:03:39;;;;;;;60.20;27.85;;;2.40;70.50;;;;;;6077959;23;114106;-82
2022/11/24 02:06:13;;;;;;;64.20;29.58;;;2.40;70.50;;;;;;6052431;23;114364;-82
2022/11/24 02:08:51;;;;;;;61.25;27.20;;;2.40;70.40;;;;;;6053202;23;115215;-82
2022/11/24 02:11:18;;;;;;;58.53;27.40;;;2.40;70.30;;;;;;6052481;23;114928;-82
2022/11/24 02:13:45;;;;;;;60.65;28.85;;;2.40;70.40;;;;;;6053270;23;114327;-82
2022/11/24 02:16:13;;;;;;;58.65;27.15;;;2.30;70.30;;;;;;6054556;23;113996;-82
2022/11/24 02:18:40;;;;;;;58.70;27.63;;;2.30;70.40;;;;;;6051889;23;115330;-82
2022/11/24 02:21:08;;;;;;;55.78;26.15;;;2.30;70.40;;;;;;6052232;23;114757;-82
2022/11/24 02:23:58;;;;;;;56.53;29.30;;;2.30;70.40;;;;;;6053596;23;114503;-82
2022/11/24 02:26:38;;;;;;;62.58;28.80;;;2.30;70.40;;;;;;6053046;23;114334;-82
2022/11/24 02:29:05;;;;;;;54.95;26.70;;;2.20;70.50;;;;;;6052002;23;115059;-82
2022/11/24 02:31:32;;;;;;;58.80;26.60;;;2.20;70.50;;;;;;6051763;23;115124;-83
2022/11/24 02:33:59;;;;;;;63.85;27.00;;;2.20;70.60;;;;;;6054924;23;114051;-82
2022/11/24 02:36:28;;;;;;;56.88;27.58;;;2.20;70.60;;;;;;6058609;23;114399;-82
2022/11/24 02:38:55;;;;;;;61.88;26.92;;;2.30;70.50;;;;;;6056470;23;116063;-82
2022/11/24 02:41:23;;;;;;;57.00;25.27;;;2.30;70.50;;;;;;6052298;23;115187;-82
2022/11/24 02:43:53;;;;;;;54.85;27.52;;;2.20;70.30;;;;;;6052834;23;114388;-82
2022/11/24 02:46:21;;;;;;;58.90;26.70;;;2.20;70.40;;;;;;6052706;23;114099;-82
2022/11/24 02:48:48;;;;;;;58.50;25.90;;;2.10;70.40;;;;;;6052313;23;114945;-82
2022/11/24 02:51:16;;;;;;;60.03;26.20;;;2.20;70.60;;;;;;6053843;23;114707;-82
2022/11/24 02:53:43;;;;;;;59.53;27.92;;;2.20;70.50;;;;;;6055318;23;114176;-82
2022/11/24 02:56:10;;;;;;;61.72;26.90;;;2.20;70.50;;;;;;6077907;23;114611;-82
2022/11/24 02:58:37;;;;;;;58.92;27.60;;;2.20;70.40;;;;;;6052316;23;115581;-82
2022/11/24 03:01:04;;;;;;;53.47;26.33;;;2.20;70.40;;;;;;6053865;23;114638;-82
2022/11/24 03:03:31;;;;;;;51.67;23.95;;;2.20;70.20;;;;;;6053310;23;114385;-82
2022/11/24 03:05:58;;;;;;;53.80;24.88;;;2.20;70.30;;;;;;6052736;23;114556;-82
2022/11/24 03:08:26;;;;;;;50.28;25.20;;;2.10;70.40;;;;;;6050946;23;114907;-82
2022/11/24 03:10:53;;;;;;;49.95;24.17;;;2.10;70.50;;;;;;6053380;23;114583;-82
2022/11/24 03:13:20;;;;;;;51.33;24.63;;;2.10;70.70;;;;;;6054627;23;114438;-81
2022/11/24 03:15:47;;;;;;;53.55;25.83;;;2.10;70.70;;;;;;6054877;23;114077;-82
2022/11/24 03:18:14;;;;;;;56.70;26.05;;;2.00;70.80;;;;;;6051661;23;116008;-82
2022/11/24 03:20:41;;;;;;;56.38;26.08;;;2.00;70.90;;;;;;6053206;23;114666;-82
2022/11/24 03:23:09;;;;;;;54.90;26.38;;;2.00;70.90;;;;;;6054203;23;114689;-82
2022/11/24 03:25:44;;;;;;;51.13;25.00;;;2.10;71.00;;;;;;6054144;23;114455;-83
2022/11/24 03:28:16;;;;;;;52.38;25.42;;;2.10;71.10;;;;;;6050087;23;116690;-81
2022/11/24 03:30:43;;;;;;;53.17;25.70;;;2.10;71.00;;;;;;6050219;23;114253;-82
2022/11/24 03:33:10;;;;;;;52.97;23.98;;;2.10;70.80;;;;;;6050830;23;114655;-81
2022/11/24 03:35:37;;;;;;;52.65;25.10;;;2.10;70.70;;;;;;6051076;23;114489;-83
2022/11/24 03:38:04;;;;;;;55.75;25.65;;;2.00;70.70;;;;;;6050794;23;115490;-81
2022/11/24 03:40:31;;;;;;;51.03;23.33;;;2.00;70.70;;;;;;6051363;23;115588;-81
2022/11/24 03:42:58;;;;;;;55.25;25.92;;;2.00;70.70;;;;;;6035062;23;114940;-81
2022/11/24 03:45:25;;;;;;;55.33;26.30;;;2.00;70.90;;;;;;6065933;23;114649;-82
2022/11/24 03:48:13;;;;;;;53.15;23.63;;;2.00;71.10;;;;;;6053054;23;115275;-82
2022/11/24 03:50:40;;;;;;;59.92;26.00;;;2.10;70.90;;;;;;6052871;23;114635;-82
2022/11/24 03:53:07;;;;;;;57.25;25.75;;;2.10;70.90;;;;;;6052764;23;114361;-81
2022/11/24 03:55:34;;;;;;;55.42;24.75;;;2.10;70.80;;;;;;6028473;23;114222;-82
2022/11/24 03:58:04;;;;;;;53.33;24.63;;;2.10;70.80;;;;;;6051245;23;115006;-81
2022/11/24 04:00:33;;;;;;;57.25;24.35;;;2.10;71.00;;;;;;6052307;23;114539;-82
2022/11/24 04:02:59;;;;;;;59.47;27.55;;;2.10;71.00;;;;;;6078576;23;114406;-82
2022/11/24 04:05:27;;;;;;;54.67;24.08;;;2.10;71.00;;;;;;6078149;23;114378;-81
2022/11/24 04:07:56;;;;;;;56.50;26.10;;;2.10;71.10;;;;;;6076971;23;115220;-81
2022/11/24 04:10:23;;;;;;;53.97;25.77;;;2.10;71.00;;;;;;6052937;23;114659;-80
2022/11/24 04:12:50;;;;;;;54.90;25.77;;;2.20;70.80;;;;;;6053750;23;114403;-80
2022/11/24 04:15:18;;;;;;;56.20;27.55;;;2.20;70.60;;;;;;6055680;23;114236;-80
2022/11/24 04:17:46;;;;;;;60.53;28.35;;;2.30;70.60;;;;;;6053036;23;114809;-82
2022/11/24 04:20:14;;;;;;;57.15;28.35;;;2.30;70.50;;;;;;6084650;23;114225;-82
2022/11/24 04:22:41;;;;;;;56.05;25.92;;;2.40;70.50;;;;;;6056394;23;114396;-81
2022/11/24 04:25:10;;;;;;;60.47;29.13;;;2.40;70.50;;;;;;6078568;23;114302;-81
2022/11/24 04:27:37;;;;;;;65.75;27.42;;;2.40;70.40;;;;;;6053393;23;114916;-82
2022/11/24 04:30:05;;;;;;;67.68;30.33;;;2.50;70.20;;;;;;6054511;23;114676;-81
2022/11/24 04:32:32;;;;;;;68.55;31.27;;;2.40;70.30;;;;;;6054161;23;114364;-81
2022/11/24 04:34:59;;;;;;;62.53;29.33;;;2.40;70.40;;;;;;6053886;23;114859;-81
2022/11/24 04:37:26;;;;;;;64.15;27.52;;;2.40;70.30;;;;;;6054820;23;114994;-81
2022/11/24 04:39:54;;;;;;;65.25;27.95;;;2.30;70.30;;;;;;6054942;23;114656;-81
2022/11/24 04:42:21;;;;;;;68.90;30.00;;;2.40;70.50;;;;;;6055387;23;114077;-82
2022/11/24 04:44:48;;;;;;;60.25;27.30;;;2.30;70.50;;;;;;6055560;23;114197;-81
2022/11/24 04:47:20;;;;;;;59.67;27.20;;;2.40;70.60;;;;;;6053822;23;114877;-82
2022/11/24 04:49:47;;;;;;;66.82;29.50;;;2.40;70.70;;;;;;6052597;23;114693;-81
2022/11/24 04:52:19;;;;;;;62.53;27.08;;;2.40;70.70;;;;;;6055439;23;114384;-80
2022/11/24 04:54:46;;;;;;;70.32;29.73;;;2.40;70.70;;;;;;6055502;23;114282;-81
2022/11/24 04:57:31;;;;;;;69.25;28.95;;;2.40;70.80;;;;;;6054137;23;115444;-81
2022/11/24 04:59:58;;;;;;;75.35;29.20;;;2.50;71.00;;;;;;6052538;23;114947;-81
2022/11/24 05:02:25;;;;;;;65.15;28.90;;;2.40;71.00;;;;;;6055209;23;114159;-81
2022/11/24 05:04:52;;;;;;;74.35;29.67;;;2.50;71.10;;;;;;6055852;23;114073;-81
2022/11/24 05:07:19;;;;;;;71.07;28.60;;;2.50;71.20;;;;;;6054060;23;114872;-81
2022/11/24 05:12:32;;;;;;;73.13;29.73;;;2.50;71.20;;;;;;6054815;23;114149;-81
2022/11/24 05:15:00;;;;;;;62.72;26.70;;;2.50;71.20;;;;;;6053617;23;114825;-82
2022/11/24 05:17:28;;;;;;;78.30;30.88;;;2.60;71.30;;;;;;6054654;23;115300;-82
2022/11/24 05:19:55;;;;;;;73.57;29.02;;;2.60;71.30;;;;;;6052434;23;114642;-82
2022/11/24 05:22:22;;;;;;;75.20;27.63;;;2.50;71.30;;;;;;6055266;23;114398;-81
2022/11/24 05:24:49;;;;;;;73.20;27.70;;;2.50;71.30;;;;;;6053553;23;114024;-82
2022/11/24 05:27:16;;;;;;;66.57;27.05;;;2.50;71.30;;;;;;6054333;23;114725;-82
2022/11/24 05:29:43;;;;;;;77.75;30.58;;;2.50;71.30;;;;;;6054417;23;114652;-82
2022/11/24 05:32:10;;;;;;;80.53;30.85;;;2.50;71.40;;;;;;6053490;23;114017;-81
2022/11/24 05:34:37;;;;;;;78.55;28.40;;;2.50;71.40;;;;;;6053514;23;114322;-82
2022/11/24 05:37:04;;;;;;;82.88;29.38;;;2.50;71.40;;;;;;6053568;23;114905;-82
2022/11/24 05:39:32;;;;;;;89.75;31.42;;;2.50;71.40;;;;;;6054447;23;116021;-81
2022/11/24 05:42:39;;;;;;;81.40;29.23;;;2.50;71.50;;;;;;6053072;23;114242;-82
2022/11/24 05:44:48;;;;;;;86.32;30.65;;;2.50;71.50;;;;;;6053442;23;114472;-82
2022/11/24 05:47:16;;;;;;;80.57;29.63;;;2.50;71.60;;;;;;6054568;23;114288;-81
2022/11/24 05:49:44;;;;;;;83.32;32.03;;;2.50;71.70;;;;;;6052684;23;115035;-82
2022/11/24 05:52:11;;;;;;;90.85;32.95;;;2.50;71.70;;;;;;6029336;23;114000;-82
2022/11/24 05:54:38;;;;;;;80.32;30.08;;;2.60;71.70;;;;;;6055385;23;114004;-82
2022/11/24 05:57:05;;;;;;;89.35;34.88;;;2.50;71.70;;;;;;6054046;23;114747;-82
2022/11/24 05:59:33;;;;;;;83.93;29.50;;;2.60;71.80;;;;;;6053815;23;114570;-83
2022/11/24 06:02:01;;;;;;;87.28;33.63;;;2.50;71.80;;;;;;6054713;23;114213;-82
2022/11/24 06:04:28;;;;;;;82.22;32.22;;;2.60;71.80;;;;;;6063715;23;114236;-82
2022/11/24 06:06:55;;;;;;;77.85;29.73;;;2.60;71.70;;;;;;6066462;23;114227;-81
2022/11/24 06:09:22;;;;;;;84.85;30.75;;;2.60;71.70;;;;;;6099183;23;113859;-81
2022/11/24 06:11:49;;;;;;;89.47;33.00;;;2.60;71.80;;;;;;6055201;23;114199;-82
2022/11/24 06:14:16;;;;;;;77.57;29.85;;;2.60;71.70;;;;;;6028576;23;114310;-81
2022/11/24 06:16:43;;;;;;;87.07;32.20;;;2.70;71.80;;;;;;6053477;23;114821;-82
2022/11/24 06:19:10;;;;;;;90.28;30.75;;;2.60;71.70;;;;;;6054315;23;114684;-81
2022/11/24 06:21:37;;;;;;;80.53;30.23;;;2.70;71.70;;;;;;6053559;23;114303;-82
2022/11/24 06:24:04;;;;;;;86.22;31.83;;;2.70;71.70;;;;;;6054444;23;114191;-81
2022/11/24 06:26:31;;;;;;;85.93;31.55;;;2.70;71.70;;;;;;6051887;23;114891;-81
2022/11/24 06:28:58;;;;;;;97.20;33.42;;;2.70;71.70;;;;;;6053828;23;115063;-81
2022/11/24 06:31:25;;;;;;;92.65;32.42;;;2.70;71.60;;;;;;6052997;23;114172;-82
2022/11/24 06:33:52;;;;;;;85.68;32.10;;;2.70;71.70;;;;;;6054981;23;114106;-82
2022/11/24 06:36:20;;;;;;;92.07;29.95;;;2.70;71.70;;;;;;6051362;23;116961;-81
2022/11/24 06:38:47;;;;;;;95.07;34.28;;;2.70;71.70;;;;;;6052879;23;114729;-82
2022/11/24 06:41:14;;;;;;;106.13;37.13;;;2.80;71.80;;;;;;6054498;23;114164;-82
2022/11/24 06:43:42;;;;;;;93.82;33.63;;;2.70;73.10;;;;;;5888771;23;114464;-81
2022/11/24 06:46:09;;;;;;;93.43;33.47;;;2.80;73.70;;;;;;6031086;23;115096;-82
2022/11/24 06:48:39;;;;;;;101.75;34.63;;;2.90;72.90;;;;;;6053586;23;118422;-81
2022/11/24 06:51:07;;;;;;;88.88;33.08;;;2.90;72.40;;;;;;6054833;23;114300;-82
2022/11/24 06:53:36;;;;;;;95.28;35.30;;;2.90;72.10;;;;;;6053994;23;115423;-82
2022/11/24 06:56:04;;;;;;;100.97;36.33;;;2.90;72.00;;;;;;6052887;23;114880;-82
2022/11/24 06:58:43;;;;;;;93.28;33.95;;;2.80;71.90;;;;;;6052667;23;114624;-83
2022/11/24 07:01:21;;;;;;;94.07;33.22;;;2.90;71.90;;;;;;6054711;23;114301;-82
2022/11/24 07:03:49;;;;;;;93.40;36.63;;;2.80;71.80;;;;;;6052792;23;114455;-81
2022/11/24 07:06:19;;;;;;;88.75;31.33;;;2.80;71.90;;;;;;6053526;23;115365;-81
2022/11/24 07:08:47;;;;;;;87.40;32.67;;;2.80;71.90;;;;;;6052846;23;114645;-81
2022/11/24 07:11:16;;;;;;;91.32;35.40;;;2.80;71.90;;;;;;6053878;23;113968;-82
2022/11/24 07:13:43;;;;;;;85.38;34.28;;;2.80;71.90;;;;;;6052932;23;114192;-81
2022/11/24 07:16:18;;;;;;;91.50;34.72;;;2.80;71.90;;;;;;6027766;23;114781;-82
2022/11/24 07:18:45;;;;;;;89.97;33.47;;;2.80;71.80;;;;;;6052053;23;114779;-81
2022/11/24 07:21:12;;;;;;;89.47;31.92;;;2.80;71.70;;;;;;6077666;23;114135;-82
2022/11/24 07:23:40;;;;;;;93.00;34.38;;;2.80;71.70;;;;;;6054445;23;114418;-82
2022/11/24 07:26:07;;;;;;;96.40;33.90;;;2.90;71.70;;;;;;6051514;23;114741;-81
2022/11/24 07:28:35;;;;;;;107.63;36.20;;;2.80;71.60;;;;;;6053354;23;115825;-82
2022/11/24 07:31:06;;;;;;;96.80;33.15;;;2.90;71.60;;;;;;6028525;23;114541;-82
2022/11/24 07:33:33;;;;;;;91.47;33.60;;;2.90;71.50;;;;;;6052920;23;114362;-82
2022/11/24 07:36:01;;;;;;;93.60;35.45;;;2.90;71.50;;;;;;6052481;23;115006;-82
2022/11/24 07:38:28;;;;;;;101.57;35.50;;;2.90;71.50;;;;;;6051429;23;114639;-82
2022/11/24 07:41:03;;;;;;;87.43;35.85;;;2.90;71.50;;;;;;6028336;23;114304;-82
2022/11/24 07:43:30;;;;;;;;;;;2.90;71.40;;;;;;6028296;23;115155;-82
2022/11/24 07:45:57;;;;;;;89.65;34.35;;;2.90;71.30;;;;;;6076611;23;114824;-82
2022/11/24 07:48:25;;;;;;;91.50;34.38;;;2.90;71.40;;;;;;6053525;23;115392;-82
2022/11/24 07:50:52;;;;;;;93.55;34.78;;;2.90;71.40;;;;;;6052932;23;114261;-81
2022/11/24 07:53:22;;;;;;;90.90;32.40;;;2.90;71.30;;;;;;6054195;23;114026;-82
2022/11/24 07:55:59;;;;;;;92.20;34.60;;;3.00;71.20;;;;;;6052939;23;115405;-81
2022/11/24 07:58:30;;;;;;;100.28;38.42;;;3.00;71.10;;;;;;6053170;23;114537;-82
2022/11/24 08:00:59;;;;;;;96.93;34.75;;;3.00;70.90;;;;;;6052536;23;114210;-82
2022/11/24 08:03:26;;;;;;;96.55;36.08;;;3.00;70.90;;;;;;6077314;23;114187;-81
2022/11/24 08:05:57;;;;;;;100.15;34.50;;;3.00;70.80;;;;;;6052234;23;115002;-81
2022/11/24 08:08:45;;;;;;;95.13;34.92;;;3.00;70.80;;;;;;6075148;23;114541;-81
2022/11/24 08:11:16;;;;;;;85.45;33.00;;;3.00;70.70;;;;;;6076781;23;114194;-81
2022/11/24 08:13:43;;;;;;;97.72;36.72;;;3.00;70.80;;;;;;6054048;23;114590;-81
2022/11/24 08:16:12;;;;;;;87.97;33.28;;;3.00;70.70;;;;;;6052994;23;114828;-80
2022/11/24 08:18:40;;;;;;;94.30;33.67;;;3.10;70.60;;;;;;6052853;23;114879;-81
2022/11/24 08:21:11;;;;;;;87.40;35.97;;;3.10;70.60;;;;;;6054981;23;114510;-82
2022/11/24 08:23:38;;;;;;;93.63;34.65;;;3.00;70.50;;;;;;6054100;23;114060;-81
2022/11/24 08:26:08;;;;;;;106.40;37.30;;;3.00;70.60;;;;;;6053664;23;114912;-82
2022/11/24 08:28:35;;;;;;;92.78;35.10;;;3.00;70.60;;;;;;6054151;23;114623;-82
2022/11/24 08:31:07;;;;;;;93.70;34.00;;;3.00;70.70;;;;;;6053149;23;114496;-82
2022/11/24 08:33:34;;;;;;;90.30;33.28;;;3.00;70.50;;;;;;6055702;23;114540;-81
2022/11/24 08:36:03;;;;;;;95.03;34.05;;;3.00;70.60;;;;;;6057037;23;114864;-82
2022/11/24 08:38:30;;;;;;;100.35;36.35;;;3.10;70.60;;;;;;6053486;23;114549;-82
2022/11/24 08:41:05;;;;;;;93.60;32.45;;;3.10;70.50;;;;;;6054701;23;114218;-81
2022/11/24 08:43:32;;;;;;;95.88;35.35;;;3.10;70.40;;;;;;6053345;23;114451;-81
2022/11/24 08:46:05;;;;;;;92.53;34.85;;;3.10;70.40;;;;;;6053634;23;114794;-82
2022/11/24 08:48:33;;;;;;;98.22;34.90;;;3.10;70.50;;;;;;6028517;23;117689;-81
2022/11/24 08:51:09;;;;;;;100.38;35.75;;;3.10;70.30;;;;;;6053390;23;115004;-81
2022/11/24 08:53:36;;;;;;;97.55;34.20;;;3.10;70.30;;;;;;6053435;23;114116;-81
2022/11/24 08:56:03;;;;;;;106.97;36.38;;;3.10;70.30;;;;;;6051636;23;114744;-81
2022/11/24 08:58:32;;;;;;;113.38;39.75;;;3.10;70.20;;;;;;6052923;23;115061;-82
2022/11/24 09:01:03;;;;;;;105.18;37.85;;;3.20;70.20;;;;;;6055326;23;114464;-81
2022/11/24 09:03:30;;;;;;;94.78;35.40;;;3.10;70.00;;;;;;6055643;23;114700;-81
2022/11/24 09:05:57;;;;;;;104.38;35.13;;;3.20;70.10;;;;;;6054793;23;114912;-81
2022/11/24 09:08:25;;;;;;;100.50;37.53;;;3.20;70.10;;;;;;6054753;23;115108;-82
2022/11/24 09:10:52;;;;;;;105.90;38.53;;;3.20;70.50;;;;;;6054586;23;114159;-81
2022/11/24 09:13:19;;;;;;;106.68;38.53;;;3.20;70.60;;;;;;6055879;23;114120;-82
2022/11/24 09:15:45;;;;;;;102.22;35.67;;;3.20;70.40;;;;;;6053751;23;114815;-82
2022/11/24 09:18:13;;;;;;;100.82;36.40;;;3.20;70.20;;;;;;6054263;23;114578;-82
2022/11/24 09:20:40;;;;;;;104.35;37.10;;;3.20;70.20;;;;;;6054447;23;114055;-81
2022/11/24 09:23:07;;;;;;;117.78;39.47;;;3.20;70.20;;;;;;6055273;23;114097;-82
2022/11/24 09:25:34;;;;;;;113.63;38.50;;;3.20;70.20;;;;;;6052866;23;114802;-82
2022/11/24 09:28:01;;;;;;;108.35;37.03;;;3.30;70.10;;;;;;6052052;23;115703;-82
2022/11/24 09:30:28;;;;;;;92.63;33.75;;;3.20;70.20;;;;;;6055057;23;114161;-83
2022/11/24 09:32:55;;;;;;;94.10;36.78;;;3.20;70.20;;;;;;6053211;23;114282;-82
2022/11/24 09:35:23;;;;;;;89.38;32.00;;;3.30;70.20;;;;;;6027219;23;115067;-82
2022/11/24 09:37:52;;;;;;;95.88;34.03;;;3.40;70.10;;;;;;6048145;23;114934;-82
2022/11/24 09:40:19;;;;;;;85.97;34.05;;;3.30;70.00;;;;;;6052794;23;114787;-83
2022/11/24 09:43:06;;;;;;;98.28;33.85;;;3.30;70.00;;;;;;6054342;23;114336;-81
2022/11/24 09:45:44;;;;;;;90.80;32.22;;;3.30;70.00;;;;;;6053716;23;115066;-81
2022/11/24 09:48:34;;;;;;;98.90;33.40;;;3.30;70.00;;;;;;6052694;23;115369;-82
2022/11/24 09:51:02;;;;;;;96.80;33.25;;;3.20;70.10;;;;;;6030313;23;114450;-81
2022/11/24 09:53:37;;;;;;;103.07;34.08;;;3.30;70.00;;;;;;6054027;23;114613;-81
2022/11/24 09:56:21;;;;;;;91.03;34.35;;;3.30;70.00;;;;;;6052759;23;114755;-82
2022/11/24 09:59:11;;;;;;;89.03;32.83;;;3.40;70.10;;;;;;6028058;23;117536;-82
2022/11/24 10:01:40;;;;;;;103.22;33.20;;;3.30;70.10;;;;;;6044294;23;114188;-81
2022/11/24 10:04:17;;;;;;;96.70;37.42;;;3.30;70.10;;;;;;6078623;23;114514;-82
2022/11/24 10:07:02;;;;;;;94.15;31.95;;;3.40;70.10;;;;;;6054188;23;114941;-82
2022/11/24 10:09:29;;;;;;;106.25;36.10;;;3.40;70.20;;;;;;6052769;23;114655;-81
2022/11/24 10:12:16;;;;;;;108.60;37.90;;;3.30;70.10;;;;;;6054101;23;114224;-83
2022/11/24 10:15:24;;;;;;;114.72;38.78;;;3.30;70.10;;;;;;6053684;23;114440;-82
2022/11/24 10:17:54;;;;;;;108.75;38.67;;;3.30;70.20;;;;;;6053684;23;114837;-83
2022/11/24 10:20:49;;;;;;;109.40;38.17;;;3.30;70.20;;;;;;6054106;23;114719;-83
2022/11/24 10:24:00;;;;;;;97.90;34.28;;;3.40;70.30;;;;;;6054038;23;114427;-82
2022/11/24 10:26:38;;;;;;;102.78;35.28;;;3.40;70.30;;;;;;6053607;23;114378;-83
2022/11/24 10:29:11;;;;;;;101.72;34.35;;;3.30;70.20;;;;;;6052019;23;115058;-81
2022/11/24 10:31:50;;;;;;;105.82;35.15;;;3.30;70.20;;;;;;6054045;23;114568;-82
2022/11/24 10:34:22;;;;;;;107.25;37.08;;;3.30;70.30;;;;;;6029156;23;114142;-82
2022/11/24 10:37:04;;;;;;;107.18;35.58;;;3.20;70.30;;;;;;6051736;23;114296;-83
2022/11/24 10:39:52;;;;;;;106.50;36.72;;;3.30;70.30;;;;;;6052748;23;115078;-81
2022/11/24 10:42:30;;;;;;;100.38;35.85;;;3.20;70.40;;;;;;6053273;23;114759;-81
2022/11/24 10:45:19;;;;;;;102.85;35.28;;;3.20;70.40;;;;;;6052364;23;114398;-83
2022/11/24 10:47:46;;;;;;;104.15;36.97;;;3.20;70.50;;;;;;6053836;23;114382;-82
2022/11/24 10:50:21;;;;;;;107.38;37.42;;;3.20;70.50;;;;;;6075352;23;114953;-83
2022/11/24 10:53:16;;;;;;;108.45;37.00;;;3.20;70.70;;;;;;6028272;23;115333;-82
2022/11/24 10:55:56;;;;;;;103.30;37.35;;;3.20;70.70;;;;;;6053316;23;114297;-81
2022/11/24 10:58:25;;;;;;;104.43;37.58;;;3.20;70.70;;;;;;6053568;23;114680;-83
2022/11/24 11:00:53;;;;;;;106.90;35.92;;;3.20;70.70;;;;;;6052747;23;114861;-83
2022/11/24 11:03:22;;;;;;;115.00;37.78;;;3.20;70.60;;;;;;6050953;23;114679;-83
2022/11/24 11:05:55;;;;;;;106.80;38.47;;;3.20;70.70;;;;;;6053802;23;114075;-83
2022/11/24 11:08:24;;;;;;;103.00;38.17;;;3.20;70.80;;;;;;6052872;23;114209;-82
2022/11/24 11:11:13;;;;;;;100.40;35.55;;;3.20;70.80;;;;;;6076473;23;115126;-83
2022/11/24 11:13:50;;;;;;;113.60;38.13;;;3.20;70.90;;;;;;6056114;23;114748;-81
2022/11/24 11:16:37;;;;;;;111.85;37.15;;;3.20;71.10;;;;;;6054807;23;114198;-81
2022/11/24 11:19:31;;;;;;;107.32;37.63;;;3.20;71.00;;;;;;6053982;23;114422;-82
2022/11/24 11:22:31;;;;;;;114.70;39.30;;;3.20;71.00;;;;;;6052907;23;114943;-82
2022/11/24 11:25:02;;;;;;;100.65;36.13;;;3.10;71.30;;;;;;6004657;23;118533;-82
2022/11/24 11:27:29;;;;;;;117.65;36.85;;;3.20;71.40;;;;;;6053690;23;114343;-82
2022/11/24 11:30:23;;;;;;;108.18;39.78;;;3.20;71.30;;;;;;6029324;23;114277;-82
2022/11/24 11:33:22;;;;;;;112.88;39.03;;;3.30;71.30;;;;;;6054903;23;118578;-81
2022/11/24 11:36:09;;;;;;;114.32;38.97;;;3.40;71.30;;;;;;6052404;23;114576;-82
2022/11/24 11:38:38;;;;;;;111.50;38.55;;;3.30;71.20;;;;;;6053481;23;114215;-82
2022/11/24 11:41:05;;;;;;;109.05;38.40;;;3.40;71.20;;;;;;6052799;23;114494;-84
2022/11/24 11:43:34;;;;;;;111.18;39.33;;;3.40;71.20;;;;;;6052100;23;114768;-81
2022/11/24 11:46:10;;;;;;;112.63;39.45;;;3.40;71.20;;;;;;6052363;23;114555;-83
2022/11/24 11:48:42;;;;;;;111.90;38.42;;;3.40;71.30;;;;;;6053363;23;114425;-83
2022/11/24 11:51:37;;;;;;;108.03;39.63;;;3.40;71.20;;;;;;6053097;23;114569;-81
2022/11/24 11:54:38;;;;;;;108.75;36.88;;;3.40;71.20;;;;;;6051742;23;114705;-82
2022/11/24 11:57:17;;;;;;;113.88;39.83;;;3.40;71.40;;;;;;6052809;23;117005;-82
2022/11/24 11:59:53;;;;;;;101.38;38.50;;;3.40;71.40;;;;;;6028199;23;114223;-82
2022/11/24 12:02:39;;;;;;;97.43;36.88;;;3.40;71.40;;;;;;6029356;23;114491;-82
2022/11/24 12:05:17;;;;;;;92.30;34.63;;;3.40;71.50;;;;;;6054315;23;115071;-82
2022/11/24 12:08:06;;;;;;;95.05;34.95;;;3.40;71.50;;;;;;6052232;23;114681;-82
2022/11/24 12:10:46;;;;;;;121.13;42.38;;;3.50;71.50;;;;;;6054299;23;114469;-81
2022/11/24 12:13:20;;;;;;;95.57;34.75;;;3.50;71.40;;;;;;6052993;23;114895;-82
2022/11/24 12:15:52;;;;;;;99.38;35.60;;;3.50;71.40;;;;;;6053572;23;116232;-81
2022/11/24 12:18:41;;;;;;;92.60;34.53;;;3.40;71.40;;;;;;6052074;23;114568;-82
2022/11/24 12:21:42;;;;;;;96.22;37.25;;;3.40;71.40;;;;;;6053408;23;114607;-82
2022/11/24 12:24:24;;;;;;;92.03;34.63;;;3.40;71.40;;;;;;6054763;23;114318;-82
2022/11/24 12:27:05;;;;;;;104.00;37.20;;;3.60;71.40;;;;;;6051486;23;114831;-82
2022/11/24 12:29:38;;;;;;;100.93;37.15;;;3.50;71.30;;;;;;6051604;23;115747;-82
2022/11/24 12:32:23;;;;;;;106.22;36.72;;;3.50;71.30;;;;;;6052998;23;114181;-82
2022/11/24 12:34:54;;;;;;;101.88;36.80;;;3.60;71.30;;;;;;6054360;23;114481;-82
2022/11/24 12:37:52;;;;;;;96.50;36.22;;;3.60;71.20;;;;;;6052284;23;115270;-83
2022/11/24 12:40:40;;;;;;;101.78;35.45;;;3.60;71.10;;;;;;6027636;23;114256;-81
2022/11/24 12:43:31;;;;;;;108.95;39.70;;;3.60;71.20;;;;;;6052689;23;114171;-82
2022/11/24 12:46:22;;;;;;;87.55;34.88;;;3.60;71.30;;;;;;6055023;23;114419;-81
2022/11/24 12:48:49;;;;;;;111.32;39.60;;;3.60;71.20;;;;;;6028086;23;116847;-82
2022/11/24 12:51:17;;;;;;;100.57;36.30;;;3.60;71.20;;;;;;6054045;23;114487;-82